Time;durP1;ratioP1;P1;durP2;ratioP2;P2;SDS_P1;SDS_P2;PMS_P1;PMS_P2;Temp;Humidity;BMP_temperature;BMP_pressure;BME280_temperature;BME280_humidity;BME280_pressure;Samples;Min_cycle;Max_cycle;Signal;HPM_P1;HPM_P2
2022/03/16 00:02:03;;;;;;;30.40;20.70;;;8.20;82.00;;;;;;5077118;28;20208;-91
2022/03/16 00:04:28;;;;;;;27.87;19.87;;;8.10;82.30;;;;;;5095181;28;20214;-89
2022/03/16 00:06:54;;;;;;;25.63;19.50;;;8.10;82.10;;;;;;5095210;28;20213;-91
2022/03/16 00:09:20;;;;;;;28.33;20.07;;;8.10;82.10;;;;;;5095815;28;20176;-84
2022/03/16 00:11:49;;;;;;;30.33;20.50;;;8.10;81.60;;;;;;5079093;28;20176;-92
2022/03/16 00:14:15;;;;;;;25.30;19.57;;;8.10;81.80;;;;;;5115514;28;20181;-86
2022/03/16 00:16:41;;;;;;;27.33;18.77;;;8.10;81.90;;;;;;5111652;28;20198;-86
2022/03/16 00:19:06;;;;;;;30.07;21.60;;;8.10;82.00;;;;;;5100656;28;20173;-85
2022/03/16 00:21:34;;;;;;;27.33;19.13;;;8.10;82.20;;;;;;5095257;28;20177;-86
2022/03/16 00:24:01;;;;;;;33.23;20.60;;;8.00;82.20;;;;;;5076280;28;20180;-87
2022/03/16 00:26:27;;;;;;;26.23;19.87;;;8.00;82.10;;;;;;5097141;28;20609;-88
2022/03/16 00:28:53;;;;;;;29.30;19.93;;;8.10;82.10;;;;;;5076953;28;20181;-89
2022/03/16 00:31:19;;;;;;;26.00;18.53;;;8.10;82.50;;;;;;5077879;28;20189;-89
2022/03/16 00:33:45;;;;;;;24.90;19.90;;;8.10;82.00;;;;;;5094443;28;20255;-89
2022/03/16 00:36:11;;;;;;;27.07;18.93;;;8.10;82.10;;;;;;5096445;28;20173;-87
2022/03/16 00:38:36;;;;;;;23.97;19.43;;;8.10;82.10;;;;;;5079483;28;20189;-85
2022/03/16 00:41:03;;;;;;;25.87;19.03;;;8.10;81.90;;;;;;5077471;28;20178;-89
2022/03/16 00:43:30;;;;;;;27.80;20.00;;;8.10;82.00;;;;;;5097325;28;20572;-89
2022/03/16 00:45:55;;;;;;;25.73;19.20;;;8.00;82.20;;;;;;5076597;28;20652;-88
2022/03/16 00:48:21;;;;;;;25.20;18.70;;;8.00;82.40;;;;;;5097797;28;20228;-88
2022/03/16 00:50:47;;;;;;;26.57;19.43;;;7.90;82.30;;;;;;5115131;28;20180;-84
2022/03/16 00:53:13;;;;;;;25.47;19.20;;;7.90;82.30;;;;;;5109930;28;20177;-87
2022/03/16 00:55:38;;;;;;;28.80;19.83;;;8.00;82.10;;;;;;5109345;28;20169;-85
2022/03/16 00:58:04;;;;;;;21.83;18.20;;;8.00;82.20;;;;;;5107773;28;20177;-85
2022/03/16 01:00:30;;;;;;;25.80;18.90;;;8.00;81.50;;;;;;5105174;28;20530;-82
2022/03/16 01:02:55;;;;;;;22.77;17.30;;;8.00;81.90;;;;;;5103801;28;20184;-83
2022/03/16 01:05:21;;;;;;;23.37;16.03;;;8.00;82.00;;;;;;5081912;28;20179;-84
2022/03/16 01:07:47;;;;;;;22.37;17.77;;;7.90;81.90;;;;;;5097812;28;20214;-86
2022/03/16 01:10:13;;;;;;;30.10;18.90;;;8.00;82.30;;;;;;5100727;28;20172;-82
2022/03/16 01:12:39;;;;;;;25.80;17.83;;;7.90;82.30;;;;;;5080794;28;20186;-83
2022/03/16 01:15:06;;;;;;;25.37;17.10;;;7.90;82.20;;;;;;5076043;28;20181;-85
2022/03/16 01:17:32;;;;;;;25.17;18.73;;;7.90;81.90;;;;;;5094109;28;20232;-84
2022/03/16 01:19:58;;;;;;;25.80;18.40;;;7.90;82.10;;;;;;5094027;28;20591;-85
2022/03/16 01:22:23;;;;;;;21.53;17.93;;;8.00;82.90;;;;;;5093672;28;21135;-84
2022/03/16 01:24:52;;;;;;;24.00;18.63;;;8.00;82.50;;;;;;5075761;28;20175;-85
2022/03/16 01:27:18;;;;;;;19.53;11.90;;;8.00;82.30;;;;;;5093719;28;20236;-88
2022/03/16 01:29:44;;;;;;;19.57;15.43;;;8.10;80.20;;;;;;5094819;28;20173;-86
2022/03/16 01:32:09;;;;;;;20.07;14.33;;;8.10;80.80;;;;;;5079473;28;20181;-87
2022/03/16 01:34:35;;;;;;;23.27;13.97;;;8.10;80.80;;;;;;5101557;28;20641;-83
2022/03/16 01:37:03;;;;;;;19.27;15.00;;;8.10;80.50;;;;;;5099514;28;20166;-84
2022/03/16 01:39:29;;;;;;;19.63;13.33;;;8.10;80.60;;;;;;5095733;28;20188;-86
2022/03/16 01:41:55;;;;;;;14.70;10.17;;;8.20;80.40;;;;;;5100439;28;20197;-86
2022/03/16 01:44:59;;;;;;;15.27;8.50;;;8.50;78.40;;;;;;5098322;28;20635;-87
2022/03/16 01:47:26;;;;;;;10.03;7.80;;;8.60;77.40;;;;;;5096882;28;20216;-88
2022/03/16 01:49:55;;;;;;;11.67;7.80;;;8.70;76.70;;;;;;5094043;28;20169;-91
2022/03/16 01:52:26;;;;;;;13.53;7.63;;;8.80;76.90;;;;;;5075653;28;20182;-90
2022/03/16 01:54:53;;;;;;;10.60;7.17;;;8.90;76.20;;;;;;5075563;28;20174;-87
2022/03/16 01:57:19;;;;;;;11.63;8.13;;;8.90;76.40;;;;;;5093474;28;20217;-89
2022/03/16 01:59:45;;;;;;;12.93;8.50;;;9.00;76.20;;;;;;5093773;28;20193;-86
2022/03/16 02:02:12;;;;;;;12.90;10.37;;;9.00;76.20;;;;;;5111937;28;20178;-87
2022/03/16 02:04:39;;;;;;;20.17;14.83;;;8.90;76.70;;;;;;5114786;28;20171;-86
2022/03/16 02:07:05;;;;;;;22.07;16.43;;;8.90;78.10;;;;;;5097617;28;20259;-87
2022/03/16 02:09:32;;;;;;;24.03;17.77;;;8.90;79.10;;;;;;5096644;28;20175;-89
2022/03/16 02:11:59;;;;;;;24.60;18.23;;;8.80;79.70;;;;;;5081411;28;20178;-89
2022/03/16 02:14:25;;;;;;;14.33;12.63;;;8.70;80.40;;;;;;5079150;28;20182;-86
2022/03/16 02:16:51;;;;;;;15.80;10.53;;;8.60;79.80;;;;;;5080269;28;20185;-90
2022/03/16 02:19:17;;;;;;;12.63;8.60;;;8.60;78.40;;;;;;5097193;28;20276;-87
2022/03/16 02:21:51;;;;;;;12.33;8.23;;;8.70;78.10;;;;;;5096838;28;20178;-89
2022/03/16 02:24:17;;;;;;;16.00;7.83;;;8.90;77.60;;;;;;5078888;28;20310;-89
2022/03/16 02:26:42;;;;;;;9.60;7.63;;;8.90;77.50;;;;;;5097578;28;20299;-88
2022/03/16 02:29:08;;;;;;;11.33;7.40;;;9.10;77.10;;;;;;5099223;28;20185;-87
2022/03/16 02:31:34;;;;;;;8.30;7.20;;;9.20;77.00;;;;;;5097363;28;20641;-88
2022/03/16 02:34:00;;;;;;;14.13;7.40;;;9.20;76.90;;;;;;5097160;28;20171;-89
2022/03/16 02:36:25;;;;;;;10.80;7.73;;;9.20;77.20;;;;;;5096869;28;20174;-90
2022/03/16 02:38:51;;;;;;;8.20;7.00;;;9.20;77.50;;;;;;5078907;28;20630;-89
2022/03/16 02:41:17;;;;;;;12.40;7.13;;;9.30;77.60;;;;;;5096862;28;20193;-90
2022/03/16 02:43:43;;;;;;;11.63;7.33;;;9.30;78.00;;;;;;5078415;28;20224;-89
2022/03/16 02:46:09;;;;;;;9.47;6.27;;;9.40;78.20;;;;;;5078992;28;20180;-89
2022/03/16 02:48:34;;;;;;;10.93;6.63;;;9.40;78.30;;;;;;5082000;28;20190;-87
2022/03/16 02:51:00;;;;;;;9.87;6.53;;;9.50;78.80;;;;;;5099731;28;20634;-88
2022/03/16 02:53:26;;;;;;;9.70;6.40;;;9.60;78.90;;;;;;5099894;28;20174;-88
2022/03/16 02:55:52;;;;;;;11.90;6.60;;;9.60;79.30;;;;;;5104919;28;20175;-85
2022/03/16 02:58:18;;;;;;;15.03;7.07;;;9.50;79.60;;;;;;5079653;28;20334;-85
2022/03/16 03:00:45;;;;;;;9.20;6.00;;;9.70;79.70;;;;;;5099850;28;20205;-85
2022/03/16 03:03:10;;;;;;;11.57;6.17;;;9.70;79.60;;;;;;5079148;28;20173;-88
2022/03/16 03:05:37;;;;;;;10.07;5.60;;;9.70;80.00;;;;;;5096892;28;20178;-85
2022/03/16 03:08:04;;;;;;;12.17;6.57;;;9.80;80.10;;;;;;5098227;28;20213;-89
2022/03/16 03:10:30;;;;;;;8.57;5.80;;;9.80;80.60;;;;;;5106559;28;20172;-85
2022/03/16 03:12:55;;;;;;;10.80;5.80;;;9.80;80.90;;;;;;5089152;28;20204;-89
2022/03/16 03:15:21;;;;;;;9.30;5.70;;;9.90;81.20;;;;;;5111066;28;20178;-89
2022/03/16 03:17:47;;;;;;;9.07;5.50;;;10.00;80.40;;;;;;5111124;28;20179;-86
2022/03/16 03:20:13;;;;;;;9.63;4.60;;;10.00;80.90;;;;;;5114365;28;20184;-86
2022/03/16 03:22:42;;;;;;;8.90;4.70;;;10.10;81.60;;;;;;5098682;28;20210;-86
2022/03/16 03:25:13;;;;;;;8.60;4.90;;;10.10;81.70;;;;;;5096096;28;20257;-89
2022/03/16 03:27:38;;;;;;;9.80;5.27;;;10.20;82.00;;;;;;5074252;28;20239;-88
2022/03/16 03:30:06;;;;;;;13.33;5.13;;;10.30;82.10;;;;;;5074344;28;20209;-89
2022/03/16 03:32:32;;;;;;;10.40;5.10;;;10.30;81.90;;;;;;5075481;28;20175;-83
2022/03/16 03:34:58;;;;;;;8.50;6.27;;;10.30;82.00;;;;;;5075910;28;20190;-89
2022/03/16 03:37:25;;;;;;;13.77;5.87;;;10.20;82.30;;;;;;5076422;28;20538;-90
2022/03/16 03:39:52;;;;;;;10.23;5.60;;;10.10;82.90;;;;;;5075790;28;20199;-90
2022/03/16 03:42:18;;;;;;;7.90;5.70;;;10.10;82.70;;;;;;5075332;28;20515;-89
2022/03/16 03:44:44;;;;;;;10.47;5.87;;;10.00;82.70;;;;;;5075458;28;20184;-87
2022/03/16 03:47:10;;;;;;;8.73;6.13;;;9.90;84.40;;;;;;5074628;28;20206;-89
2022/03/16 03:49:38;;;;;;;9.53;6.67;;;9.80;84.70;;;;;;5093256;28;20151;-89
2022/03/16 03:52:05;;;;;;;9.70;6.27;;;9.80;84.90;;;;;;5098727;28;20167;-88
2022/03/16 03:54:31;;;;;;;8.50;6.63;;;9.70;85.10;;;;;;5081232;28;20171;-90
2022/03/16 03:56:57;;;;;;;12.53;6.73;;;9.70;85.20;;;;;;5076891;28;20177;-87
2022/03/16 03:59:23;;;;;;;10.43;5.90;;;9.70;85.30;;;;;;5077178;28;20175;-88
2022/03/16 04:01:50;;;;;;;9.67;6.00;;;9.70;85.40;;;;;;5078321;28;20260;-87
2022/03/16 04:04:15;;;;;;;10.67;6.47;;;9.70;85.60;;;;;;5075498;28;20173;-88
2022/03/16 04:06:41;;;;;;;10.30;6.33;;;9.70;86.00;;;;;;5076566;28;20199;-88
2022/03/16 04:09:08;;;;;;;12.90;5.77;;;9.60;86.40;;;;;;5075199;28;20182;-88
2022/03/16 04:11:34;;;;;;;9.90;6.30;;;9.70;86.50;;;;;;5075201;28;20266;-84
2022/03/16 04:14:00;;;;;;;13.53;5.87;;;9.80;86.40;;;;;;5076343;28;20174;-89
2022/03/16 04:16:27;;;;;;;11.33;6.20;;;9.80;86.50;;;;;;5073220;28;20170;-88
2022/03/16 04:18:53;;;;;;;11.03;6.10;;;9.80;86.50;;;;;;5075813;28;20208;-90
2022/03/16 04:21:19;;;;;;;8.63;5.73;;;9.80;86.60;;;;;;5074850;28;20169;-85
2022/03/16 04:23:45;;;;;;;11.63;5.80;;;9.80;86.90;;;;;;5071267;28;20179;-85
2022/03/16 04:26:11;;;;;;;9.13;5.93;;;9.70;87.20;;;;;;5084168;28;20291;-85
2022/03/16 04:28:36;;;;;;;14.10;5.67;;;9.70;87.10;;;;;;5096482;28;20272;-89
2022/03/16 04:31:02;;;;;;;8.53;6.10;;;9.70;87.10;;;;;;5114436;28;20170;-88
2022/03/16 04:33:29;;;;;;;7.97;5.60;;;9.70;87.40;;;;;;5114587;28;20639;-88
2022/03/16 04:35:55;;;;;;;9.70;5.93;;;9.70;87.40;;;;;;5098049;28;20170;-86
2022/03/16 04:38:21;;;;;;;13.57;11.07;;;9.70;87.60;;;;;;5115055;28;20284;-85
2022/03/16 04:40:47;;;;;;;19.37;15.10;;;9.70;87.00;;;;;;5123866;28;20305;-90
2022/03/16 04:43:13;;;;;;;25.33;16.90;;;9.60;86.10;;;;;;5123499;28;20522;-85
2022/03/16 04:45:40;;;;;;;28.77;18.67;;;9.50;85.80;;;;;;5119001;28;20172;-86
2022/03/16 04:48:09;;;;;;;26.60;19.03;;;9.40;85.50;;;;;;5118684;28;20208;-86
2022/03/16 04:50:36;;;;;;;28.73;19.83;;;9.20;85.60;;;;;;5116755;28;20193;-87
2022/03/16 04:53:03;;;;;;;27.47;19.57;;;9.10;85.70;;;;;;5115750;28;20173;-90
2022/03/16 04:55:29;;;;;;;29.17;20.27;;;8.90;85.60;;;;;;5117315;28;20558;-89
2022/03/16 04:57:54;;;;;;;23.67;19.73;;;8.80;86.10;;;;;;5097377;28;20177;-89
2022/03/16 05:00:20;;;;;;;32.63;20.47;;;8.70;86.30;;;;;;5124095;28;20534;-86
2022/03/16 05:02:46;;;;;;;24.50;17.20;;;8.60;86.70;;;;;;5125903;28;20199;-88
2022/03/16 05:05:12;;;;;;;27.47;18.80;;;8.60;86.20;;;;;;5120975;28;20575;-88
2022/03/16 05:07:38;;;;;;;23.00;18.50;;;8.50;86.40;;;;;;5116114;28;20212;-86
2022/03/16 05:10:07;;;;;;;28.43;18.93;;;8.40;86.50;;;;;;5116642;28;20688;-84
2022/03/16 05:12:41;;;;;;;26.53;19.27;;;8.30;86.80;;;;;;5105656;28;20193;-83
2022/03/16 05:15:10;;;;;;;23.90;19.43;;;8.20;87.20;;;;;;5128509;28;20207;-85
2022/03/16 05:17:37;;;;;;;24.20;18.83;;;8.20;86.60;;;;;;5103724;28;20192;-85
2022/03/16 05:20:03;;;;;;;25.93;18.70;;;8.10;87.10;;;;;;5097559;28;20182;-83
2022/03/16 05:22:29;;;;;;;24.80;18.87;;;8.00;87.00;;;;;;5107793;28;20181;-85
2022/03/16 05:24:54;;;;;;;27.17;18.87;;;8.10;87.20;;;;;;5097241;28;20280;-85
2022/03/16 05:27:20;;;;;;;25.97;18.07;;;8.00;87.00;;;;;;5108047;28;20263;-85
2022/03/16 05:29:47;;;;;;;24.63;19.00;;;8.00;87.00;;;;;;5108957;28;20173;-84
2022/03/16 05:32:13;;;;;;;23.77;18.00;;;8.00;87.00;;;;;;5086010;28;20560;-87
2022/03/16 05:34:39;;;;;;;28.73;18.70;;;8.10;86.70;;;;;;5095536;28;20209;-85
2022/03/16 05:37:05;;;;;;;24.97;17.67;;;8.00;86.50;;;;;;5099386;28;20672;-84
2022/03/16 05:39:31;;;;;;;22.53;16.87;;;7.90;86.90;;;;;;5112987;28;20205;-88
2022/03/16 05:41:57;;;;;;;26.80;17.50;;;7.90;86.90;;;;;;5111032;28;20177;-91
2022/03/16 05:44:23;;;;;;;23.83;17.63;;;7.90;87.20;;;;;;5101615;28;20514;-90
2022/03/16 05:46:50;;;;;;;21.37;17.10;;;7.90;87.00;;;;;;5099261;28;20223;-90
2022/03/16 05:49:15;;;;;;;21.43;16.53;;;7.90;86.40;;;;;;5081157;28;20688;-91
2022/03/16 05:51:41;;;;;;;25.80;17.03;;;8.00;86.40;;;;;;5098145;28;20274;-89
2022/03/16 05:54:07;;;;;;;24.03;17.03;;;8.00;86.10;;;;;;5079840;28;20183;-86
2022/03/16 05:56:34;;;;;;;20.77;16.23;;;8.00;86.60;;;;;;5080556;28;20205;-87
2022/03/16 05:58:59;;;;;;;24.73;16.83;;;8.10;86.30;;;;;;5110439;28;20249;-85
2022/03/16 06:01:28;;;;;;;21.17;16.43;;;8.10;86.40;;;;;;5096679;28;20185;-86
2022/03/16 06:03:54;;;;;;;20.30;15.23;;;8.10;86.40;;;;;;5112662;28;20703;-84
2022/03/16 06:06:20;;;;;;;21.17;17.03;;;8.10;85.80;;;;;;5111477;28;20173;-83
2022/03/16 06:08:46;;;;;;;22.07;16.53;;;8.10;85.80;;;;;;5091785;28;20189;-89
2022/03/16 06:11:12;;;;;;;20.87;16.27;;;8.10;86.00;;;;;;5099449;28;20178;-87
2022/03/16 06:13:40;;;;;;;20.50;15.40;;;8.20;85.50;;;;;;5097850;28;20606;-87
2022/03/16 06:16:06;;;;;;;22.40;15.60;;;8.30;85.30;;;;;;5079439;28;20202;-87
2022/03/16 06:18:31;;;;;;;21.63;15.00;;;8.40;85.60;;;;;;5079182;28;20298;-86
2022/03/16 06:20:57;;;;;;;24.30;15.70;;;8.40;85.10;;;;;;5097989;28;20250;-86
2022/03/16 06:23:23;;;;;;;22.57;16.07;;;8.50;85.20;;;;;;5080407;28;20583;-86
2022/03/16 06:25:48;;;;;;;29.20;15.67;;;8.60;85.40;;;;;;5087267;28;20209;-89
2022/03/16 06:28:17;;;;;;;20.13;13.57;;;8.50;85.30;;;;;;5101762;28;20198;-89
2022/03/16 06:30:42;;;;;;;21.97;14.33;;;8.60;85.30;;;;;;5084448;28;20637;-86
2022/03/16 06:33:08;;;;;;;18.33;13.20;;;8.70;85.30;;;;;;5087670;28;20178;-89
2022/03/16 06:35:34;;;;;;;18.70;13.83;;;8.70;85.70;;;;;;5102764;28;20193;-86
2022/03/16 06:38:00;;;;;;;21.33;14.30;;;8.70;85.30;;;;;;5105766;28;20610;-88
2022/03/16 06:40:26;;;;;;;22.33;15.77;;;8.90;85.20;;;;;;5083497;28;20183;-91
2022/03/16 06:42:57;;;;;;;26.57;14.93;;;8.90;85.10;;;;;;5100634;28;20174;-88
2022/03/16 06:45:26;;;;;;;23.77;15.20;;;9.00;85.30;;;;;;5094890;28;20234;-89
2022/03/16 06:47:56;;;;;;;19.50;14.80;;;9.10;85.30;;;;;;5110613;28;20202;-84
2022/03/16 06:50:23;;;;;;;26.47;16.00;;;9.10;85.40;;;;;;5101438;28;20182;-84
2022/03/16 06:52:49;;;;;;;17.87;14.73;;;9.20;85.10;;;;;;5080710;28;20184;-85
2022/03/16 06:55:15;;;;;;;25.17;14.20;;;9.20;84.90;;;;;;5078209;28;20170;-85
2022/03/16 06:57:41;;;;;;;27.40;15.03;;;9.30;84.90;;;;;;5097060;28;20170;-84
2022/03/16 07:00:09;;;;;;;13.77;10.07;;;9.30;84.70;;;;;;5078283;28;20598;-84
2022/03/16 07:03:07;;;;;;;14.07;7.83;;;9.40;87.90;;;;;;5096166;28;20245;-87
2022/03/16 07:05:35;;;;;;;11.13;7.17;;;9.60;90.20;;;;;;4998498;28;20267;-86
2022/03/16 07:08:03;;;;;;;8.33;5.40;;;9.80;90.50;;;;;;5014314;28;20224;-87
2022/03/16 07:10:30;;;;;;;6.97;6.10;;;9.90;91.00;;;;;;5016726;28;20182;-86
2022/03/16 07:12:56;;;;;;;8.97;6.20;;;10.00;90.50;;;;;;5021699;28;20251;-86
2022/03/16 07:15:23;;;;;;;14.83;10.23;;;10.10;90.50;;;;;;5035831;28;20193;-84
2022/03/16 07:17:50;;;;;;;19.70;11.63;;;10.20;88.00;;;;;;5034125;28;20179;-82
2022/03/16 07:20:16;;;;;;;24.57;12.83;;;10.30;88.00;;;;;;5031406;28;20185;-84
2022/03/16 07:22:42;;;;;;;18.33;13.07;;;10.40;85.90;;;;;;5018526;28;20277;-88
2022/03/16 07:25:09;;;;;;;18.83;13.07;;;10.50;85.50;;;;;;5015288;28;20185;-87
2022/03/16 07:27:39;;;;;;;17.77;13.53;;;10.50;85.00;;;;;;5009929;28;20364;-85
2022/03/16 07:30:09;;;;;;;19.90;13.50;;;10.50;85.30;;;;;;5018722;28;20174;-84
2022/03/16 07:32:39;;;;;;;20.60;14.30;;;10.50;85.00;;;;;;5034224;28;20744;-91
2022/03/16 07:35:11;;;;;;;7.13;5.03;;;10.60;84.10;;;;;;5024161;28;20178;-86
2022/03/16 07:37:38;;;;;;;9.43;4.30;;;10.70;88.80;;;;;;5021871;28;20359;-89
2022/03/16 07:40:05;;;;;;;6.20;3.40;;;10.80;89.30;;;;;;5025171;28;20256;-86
2022/03/16 07:42:31;;;;;;;4.87;4.17;;;11.00;89.20;;;;;;5100960;28;20182;-86
2022/03/16 07:44:58;;;;;;;6.67;3.57;;;11.00;89.10;;;;;;5077909;28;20167;-87
2022/03/16 07:47:27;;;;;;;7.67;4.70;;;11.10;89.20;;;;;;5096061;28;20220;-89
2022/03/16 07:49:53;;;;;;;7.47;3.83;;;11.20;89.10;;;;;;5078805;28;20183;-86
2022/03/16 07:52:22;;;;;;;5.73;3.90;;;11.20;88.90;;;;;;5096341;28;20181;-88
2022/03/16 07:54:48;;;;;;;8.50;4.07;;;11.30;88.60;;;;;;5096168;28;20167;-89
2022/03/16 07:57:16;;;;;;;6.57;3.93;;;11.40;88.50;;;;;;5096455;28;20170;-87
2022/03/16 07:59:42;;;;;;;7.10;4.57;;;11.50;87.80;;;;;;5096228;28;20163;-86
2022/03/16 08:02:08;;;;;;;4.57;3.43;;;11.70;86.30;;;;;;5098015;28;20171;-85
2022/03/16 08:04:34;;;;;;;2.93;2.63;;;11.80;86.10;;;;;;5077898;28;20326;-87
2022/03/16 08:07:00;;;;;;;3.07;2.83;;;11.90;84.20;;;;;;5094996;28;20198;-86
2022/03/16 08:09:25;;;;;;;2.43;2.30;;;12.00;83.40;;;;;;5095900;28;20172;-87
2022/03/16 08:11:52;;;;;;;2.40;1.90;;;12.10;82.00;;;;;;5096566;28;20243;-87
2022/03/16 08:14:18;;;;;;;3.00;1.83;;;12.30;80.30;;;;;;5077840;28;20180;-88
2022/03/16 08:16:44;;;;;;;2.23;1.90;;;12.30;79.40;;;;;;5078252;28;20187;-84
2022/03/16 08:19:10;;;;;;;1.63;1.63;;;12.40;78.40;;;;;;5081337;28;20175;-85
2022/03/16 08:21:35;;;;;;;1.63;1.63;;;12.50;77.80;;;;;;5081111;28;20183;-89
2022/03/16 08:24:01;;;;;;;2.00;1.90;;;12.50;77.40;;;;;;5096432;28;20173;-87
2022/03/16 08:26:27;;;;;;;3.40;2.17;;;12.60;76.70;;;;;;5075348;28;20265;-85
2022/03/16 08:28:53;;;;;;;2.00;1.90;;;12.70;76.30;;;;;;5079175;28;20208;-88
2022/03/16 08:31:18;;;;;;;1.93;1.83;;;12.80;75.70;;;;;;5082890;28;20167;-85
2022/03/16 08:33:45;;;;;;;1.90;1.80;;;12.80;75.10;;;;;;5078166;28;20172;-85
2022/03/16 08:36:11;;;;;;;1.97;1.87;;;12.90;74.50;;;;;;5079836;28;20178;-90
2022/03/16 08:38:38;;;;;;;2.00;1.90;;;12.90;74.10;;;;;;5074000;28;20176;-88
2022/03/16 08:41:08;;;;;;;2.50;1.97;;;13.00;73.80;;;;;;5075821;28;20174;-90
2022/03/16 08:43:34;;;;;;;1.70;1.70;;;13.10;73.10;;;;;;5078481;28;20222;-88
2022/03/16 08:46:01;;;;;;;3.17;2.00;;;13.10;73.00;;;;;;5076520;28;20186;-87
2022/03/16 08:48:27;;;;;;;2.40;2.23;;;13.20;73.00;;;;;;5075689;28;20209;-89
2022/03/16 08:50:53;;;;;;;1.80;1.80;;;13.30;71.70;;;;;;5076854;28;20684;-87
2022/03/16 08:53:19;;;;;;;2.00;1.90;;;13.30;71.70;;;;;;5075035;28;20182;-85
2022/03/16 08:55:45;;;;;;;2.17;2.07;;;13.40;71.00;;;;;;5074282;28;20179;-85
2022/03/16 08:58:14;;;;;;;2.37;2.27;;;13.40;71.00;;;;;;5074835;28;20190;-88
2022/03/16 09:00:41;;;;;;;3.33;2.10;;;13.40;70.30;;;;;;5074279;28;20210;-85
2022/03/16 09:03:07;;;;;;;2.20;2.10;;;13.30;70.60;;;;;;5079542;28;20515;-86
2022/03/16 09:05:33;;;;;;;2.43;2.27;;;13.40;70.60;;;;;;5077133;28;20188;-88
2022/03/16 09:07:59;;;;;;;2.33;2.23;;;13.30;70.30;;;;;;5075595;28;20208;-87
2022/03/16 09:10:25;;;;;;;2.63;2.10;;;13.20;71.10;;;;;;5076091;28;20233;-86
2022/03/16 09:12:50;;;;;;;2.27;2.17;;;13.20;70.10;;;;;;5085021;28;20174;-85
2022/03/16 09:15:16;;;;;;;2.30;2.20;;;13.20;69.60;;;;;;5092284;28;20185;-86
2022/03/16 09:17:42;;;;;;;2.10;2.00;;;13.30;69.90;;;;;;5094165;28;20176;-86
2022/03/16 09:20:08;;;;;;;2.40;2.30;;;13.40;69.40;;;;;;5097235;28;20210;-87
2022/03/16 09:22:34;;;;;;;2.20;2.10;;;13.50;69.40;;;;;;5093483;28;20242;-89
2022/03/16 09:25:00;;;;;;;2.40;2.30;;;13.60;69.20;;;;;;5082144;28;20229;-88
2022/03/16 09:27:26;;;;;;;2.30;2.20;;;13.60;68.50;;;;;;5095860;28;20236;-89
2022/03/16 09:29:55;;;;;;;2.43;2.30;;;13.60;68.60;;;;;;5096070;28;20194;-90
2022/03/16 09:32:22;;;;;;;2.67;2.57;;;13.70;68.60;;;;;;5097258;28;20223;-88
2022/03/16 09:34:48;;;;;;;2.50;2.40;;;13.80;68.30;;;;;;5095898;28;20182;-86
2022/03/16 09:37:15;;;;;;;4.03;2.77;;;13.90;67.80;;;;;;5094712;28;20171;-89
2022/03/16 09:39:41;;;;;;;4.10;2.10;;;13.90;68.10;;;;;;5095297;28;20215;-87
2022/03/16 09:42:09;;;;;;;2.33;2.23;;;14.00;68.00;;;;;;5093720;28;20187;-87
2022/03/16 09:44:37;;;;;;;2.47;2.37;;;14.10;68.20;;;;;;5093771;28;20162;-85
2022/03/16 09:47:04;;;;;;;2.40;2.20;;;14.10;68.10;;;;;;5092351;28;20213;-85
2022/03/16 09:49:31;;;;;;;2.00;1.90;;;14.20;68.00;;;;;;5095178;28;20161;-85
2022/03/16 09:51:59;;;;;;;2.47;2.37;;;14.20;68.00;;;;;;5095190;28;20653;-83
2022/03/16 09:54:25;;;;;;;2.27;2.17;;;14.20;67.90;;;;;;5099367;28;20168;-83
2022/03/16 09:56:53;;;;;;;2.53;2.33;;;14.20;67.90;;;;;;5095343;28;20216;-84
2022/03/16 09:59:20;;;;;;;2.70;2.50;;;14.30;67.40;;;;;;5099112;28;20201;-83
2022/03/16 10:01:46;;;;;;;2.50;2.33;;;14.30;66.30;;;;;;5094745;28;20622;-85
2022/03/16 10:04:13;;;;;;;2.47;2.20;;;14.30;66.40;;;;;;5097232;28;20174;-83
2022/03/16 10:06:42;;;;;;;2.20;2.10;;;14.30;65.90;;;;;;5105455;28;20253;-84
2022/03/16 10:15:10;;;;;;;2.90;2.30;;;14.20;64.60;;;;;;5103640;28;20166;-86
2022/03/16 10:17:43;;;;;;;2.40;2.30;;;14.30;63.70;;;;;;5099024;28;20245;-86
2022/03/16 10:20:29;;;;;;;2.40;2.20;;;14.20;63.60;;;;;;5099536;28;20182;-85
2022/03/16 10:23:07;;;;;;;2.50;2.40;;;14.20;64.60;;;;;;5092737;28;20277;-87
2022/03/16 10:25:45;;;;;;;2.20;2.10;;;14.20;63.30;;;;;;5092844;28;20174;-87
2022/03/16 10:28:24;;;;;;;3.30;3.10;;;14.20;62.90;;;;;;5114486;28;20198;-88
2022/03/16 10:30:58;;;;;;;3.23;2.90;;;14.30;62.50;;;;;;5121041;28;20154;-87
2022/03/16 10:33:31;;;;;;;2.90;2.57;;;14.30;62.40;;;;;;5119843;28;20687;-87
2022/03/16 10:36:06;;;;;;;2.93;2.57;;;14.30;63.00;;;;;;5120856;28;20163;-86
2022/03/16 10:38:53;;;;;;;3.50;2.70;;;14.20;62.30;;;;;;5117717;28;20165;-89
2022/03/16 10:46:55;;;;;;;6.80;3.17;;;14.20;62.00;;;;;;5117735;28;20200;-88
2022/03/16 10:49:22;;;;;;;3.40;3.10;;;14.00;62.40;;;;;;5099220;28;20219;-86
2022/03/16 10:52:05;;;;;;;2.53;2.40;;;14.00;61.80;;;;;;5098735;28;20177;-86
2022/03/16 10:54:33;;;;;;;2.70;2.50;;;14.10;62.00;;;;;;5117757;28;20154;-89
2022/03/16 10:57:01;;;;;;;2.87;2.60;;;14.10;62.20;;;;;;5117191;28;20170;-88
2022/03/16 10:59:30;;;;;;;2.80;2.70;;;14.10;62.20;;;;;;5117442;28;20554;-86
2022/03/16 11:02:01;;;;;;;2.90;2.60;;;14.10;62.70;;;;;;5118120;28;20547;-86
2022/03/16 11:04:29;;;;;;;2.80;2.70;;;14.30;62.60;;;;;;5119352;28;20155;-89
2022/03/16 11:07:00;;;;;;;4.73;2.97;;;14.30;62.20;;;;;;5123091;28;20687;-90
2022/03/16 11:09:26;;;;;;;5.03;3.10;;;14.50;62.70;;;;;;5133040;28;20213;-87
2022/03/16 11:14:43;;;;;;;3.57;2.87;;;14.50;63.10;;;;;;5134130;28;20168;-88
2022/03/16 11:17:10;;;;;;;3.10;2.90;;;14.30;62.60;;;;;;5134500;28;20181;-84
2022/03/16 11:19:37;;;;;;;3.90;3.20;;;14.20;62.10;;;;;;5139311;28;20165;-86
2022/03/16 11:22:09;;;;;;;4.20;2.93;;;14.20;62.30;;;;;;5126420;28;20170;-89
2022/03/16 11:24:40;;;;;;;3.27;3.07;;;14.40;61.70;;;;;;5117949;28;20158;-89
2022/03/16 11:27:30;;;;;;;4.57;3.30;;;14.30;61.30;;;;;;5118711;28;20310;-88
2022/03/16 11:30:25;;;;;;;3.40;3.20;;;14.30;61.30;;;;;;5120732;28;20162;-89
2022/03/16 11:32:57;;;;;;;3.60;3.40;;;14.20;61.70;;;;;;5100336;28;20205;-90
2022/03/16 11:35:44;;;;;;;3.80;3.13;;;14.20;61.90;;;;;;5118181;28;20161;-89
2022/03/16 11:38:18;;;;;;;3.10;2.90;;;14.20;62.10;;;;;;5100512;28;20166;-89
2022/03/16 11:40:47;;;;;;;3.30;3.10;;;14.40;61.70;;;;;;5120101;28;20185;-89
2022/03/16 11:43:22;;;;;;;3.80;3.20;;;14.50;61.10;;;;;;5121639;28;20162;-89
2022/03/16 11:45:54;;;;;;;3.60;3.43;;;14.50;60.90;;;;;;5118472;28;20158;-86
2022/03/16 11:48:28;;;;;;;8.67;5.30;;;14.50;61.00;;;;;;5100839;28;20220;-88
2022/03/16 11:51:11;;;;;;;4.53;4.20;;;14.40;61.20;;;;;;5098950;28;20174;-85
2022/03/16 11:53:46;;;;;;;4.00;3.70;;;14.30;61.40;;;;;;5099207;28;20187;-87
2022/03/16 11:56:20;;;;;;;4.57;4.27;;;14.40;61.00;;;;;;5120727;28;20170;-85
2022/03/16 11:58:53;;;;;;;4.40;4.00;;;14.30;60.40;;;;;;5103705;28;20169;-87
2022/03/16 12:01:30;;;;;;;4.07;3.87;;;14.30;60.50;;;;;;5120361;28;20242;-87
2022/03/16 12:04:23;;;;;;;6.80;4.70;;;14.00;60.70;;;;;;5102621;28;20207;-86
2022/03/16 12:06:53;;;;;;;5.03;4.70;;;13.90;61.20;;;;;;5126480;28;20191;-86
2022/03/16 12:09:30;;;;;;;8.20;4.90;;;13.80;61.30;;;;;;5121404;28;20169;-88
2022/03/16 12:15:09;;;;;;;5.20;4.80;;;13.80;61.00;;;;;;5116571;28;20190;-86
2022/03/16 12:17:37;;;;;;;6.17;5.53;;;13.80;60.90;;;;;;5097424;28;20690;-86
2022/03/16 12:20:49;;;;;;;6.33;5.17;;;13.80;60.80;;;;;;5116091;28;20532;-86
2022/03/16 12:23:18;;;;;;;6.70;5.67;;;13.80;60.00;;;;;;5115696;28;20242;-85
2022/03/16 12:25:47;;;;;;;6.73;6.03;;;13.80;60.00;;;;;;5115753;28;20165;-89
2022/03/16 12:31:16;;;;;;;6.57;5.87;;;13.60;60.80;;;;;;5115991;28;20171;-84
2022/03/16 12:33:47;;;;;;;6.23;5.73;;;13.70;60.40;;;;;;5096785;28;20171;-85
2022/03/16 12:36:23;;;;;;;6.07;5.57;;;13.70;60.80;;;;;;5115923;28;20179;-84
2022/03/16 12:38:52;;;;;;;8.13;7.40;;;13.70;60.90;;;;;;5115148;28;20158;-86
2022/03/16 12:44:11;;;;;;;7.00;6.40;;;13.80;60.70;;;;;;5115362;28;20184;-85
2022/03/16 12:46:47;;;;;;;6.90;6.20;;;13.80;61.10;;;;;;5115367;28;20264;-85
2022/03/16 12:49:14;;;;;;;7.47;6.83;;;14.00;60.90;;;;;;5115260;28;20228;-90
2022/03/16 12:51:45;;;;;;;7.00;6.40;;;14.00;60.40;;;;;;5118984;28;20180;-88
2022/03/16 12:54:20;;;;;;;7.47;6.83;;;14.00;60.50;;;;;;5115798;28;20230;-87
2022/03/16 12:56:51;;;;;;;7.27;6.67;;;14.00;60.40;;;;;;5121007;28;20156;-87
2022/03/16 12:59:34;;;;;;;6.90;6.30;;;13.90;60.70;;;;;;5138359;28;20165;-88
2022/03/16 13:02:04;;;;;;;7.60;6.80;;;13.90;60.60;;;;;;5134269;27;20166;-89
2022/03/16 13:04:31;;;;;;;6.83;6.27;;;13.90;60.70;;;;;;5117928;28;20166;-90
2022/03/16 13:06:59;;;;;;;10.20;6.70;;;13.80;61.00;;;;;;5118430;28;20202;-90
2022/03/16 13:09:32;;;;;;;7.47;6.77;;;13.80;60.80;;;;;;5116192;28;20239;-88
2022/03/16 13:12:03;;;;;;;7.83;7.13;;;13.70;61.10;;;;;;5126750;28;20184;-87